sensor_id;sensor_type;location;lat;lon;timestamp;P1;durP1;ratioP1;P2;durP2;ratioP2
54384;SDS011;40284;52.878;5.998;2023-07-16T00:00:00;7.90;;;3.22;;
54384;SDS011;40284;52.878;5.998;2023-07-16T00:02:26;11.32;;;3.70;;
54384;SDS011;40284;52.878;5.998;2023-07-16T00:04:52;12.57;;;4.03;;
54384;SDS011;40284;52.878;5.998;2023-07-16T00:07:18;8.52;;;2.58;;
54384;SDS011;40284;52.878;5.998;2023-07-16T00:09:44;13.02;;;4.00;;
54384;SDS011;40284;52.878;5.998;2023-07-16T00:12:10;8.45;;;3.17;;
54384;SDS011;40284;52.878;5.998;2023-07-16T00:14:36;10.93;;;3.03;;
54384;SDS011;40284;52.878;5.998;2023-07-16T00:17:03;13.63;;;3.15;;
54384;SDS011;40284;52.878;5.998;2023-07-16T00:19:29;9.95;;;3.20;;
54384;SDS011;40284;52.878;5.998;2023-07-16T00:21:55;9.55;;;3.00;;
54384;SDS011;40284;52.878;5.998;2023-07-16T00:24:21;8.70;;;2.97;;
54384;SDS011;40284;52.878;5.998;2023-07-16T00:26:47;10.90;;;3.28;;
54384;SDS011;40284;52.878;5.998;2023-07-16T00:29:13;8.88;;;2.60;;
54384;SDS011;40284;52.878;5.998;2023-07-16T00:31:39;12.90;;;3.55;;
54384;SDS011;40284;52.878;5.998;2023-07-16T00:34:05;12.82;;;3.53;;
54384;SDS011;40284;52.878;5.998;2023-07-16T00:36:31;7.80;;;3.45;;
54384;SDS011;40284;52.878;5.998;2023-07-16T00:38:57;10.75;;;3.28;;
54384;SDS011;40284;52.878;5.998;2023-07-16T00:41:23;13.35;;;3.70;;
54384;SDS011;40284;52.878;5.998;2023-07-16T00:43:49;12.07;;;3.88;;
54384;SDS011;40284;52.878;5.998;2023-07-16T00:46:15;15.07;;;3.20;;
54384;SDS011;40284;52.878;5.998;2023-07-16T00:48:42;16.17;;;3.72;;
54384;SDS011;40284;52.878;5.998;2023-07-16T00:51:08;9.38;;;3.70;;
54384;SDS011;40284;52.878;5.998;2023-07-16T00:53:35;16.33;;;3.58;;
54384;SDS011;40284;52.878;5.998;2023-07-16T00:56:01;16.70;;;3.72;;
54384;SDS011;40284;52.878;5.998;2023-07-16T00:58:27;11.00;;;3.72;;
54384;SDS011;40284;52.878;5.998;2023-07-16T01:00:53;10.35;;;3.40;;
54384;SDS011;40284;52.878;5.998;2023-07-16T01:03:19;11.15;;;2.70;;
54384;SDS011;40284;52.878;5.998;2023-07-16T01:05:47;10.35;;;2.47;;
54384;SDS011;40284;52.878;5.998;2023-07-16T01:08:17;14.40;;;2.95;;
54384;SDS011;40284;52.878;5.998;2023-07-16T01:10:44;12.60;;;2.85;;
54384;SDS011;40284;52.878;5.998;2023-07-16T01:13:11;14.05;;;3.53;;
54384;SDS011;40284;52.878;5.998;2023-07-16T01:15:37;9.30;;;2.20;;
54384;SDS011;40284;52.878;5.998;2023-07-16T01:18:03;10.82;;;2.42;;
54384;SDS011;40284;52.878;5.998;2023-07-16T01:20:29;8.68;;;2.92;;
54384;SDS011;40284;52.878;5.998;2023-07-16T01:23:04;9.93;;;2.67;;
54384;SDS011;40284;52.878;5.998;2023-07-16T01:25:48;8.93;;;2.83;;
54384;SDS011;40284;52.878;5.998;2023-07-16T01:30:43;10.75;;;2.50;;
54384;SDS011;40284;52.878;5.998;2023-07-16T01:33:09;14.30;;;3.25;;
54384;SDS011;40284;52.878;5.998;2023-07-16T01:35:36;10.30;;;3.22;;
54384;SDS011;40284;52.878;5.998;2023-07-16T01:38:03;9.93;;;3.53;;
54384;SDS011;40284;52.878;5.998;2023-07-16T01:40:29;12.95;;;3.22;;
54384;SDS011;40284;52.878;5.998;2023-07-16T01:42:56;10.05;;;2.70;;
54384;SDS011;40284;52.878;5.998;2023-07-16T01:45:22;12.18;;;3.45;;
54384;SDS011;40284;52.878;5.998;2023-07-16T01:50:14;11.80;;;3.25;;
54384;SDS011;40284;52.878;5.998;2023-07-16T01:52:40;9.48;;;3.17;;
54384;SDS011;40284;52.878;5.998;2023-07-16T01:55:06;11.38;;;3.78;;
54384;SDS011;40284;52.878;5.998;2023-07-16T01:57:32;10.98;;;3.22;;
54384;SDS011;40284;52.878;5.998;2023-07-16T01:59:58;11.13;;;3.30;;
54384;SDS011;40284;52.878;5.998;2023-07-16T02:02:24;15.00;;;4.32;;
54384;SDS011;40284;52.878;5.998;2023-07-16T02:04:50;13.32;;;4.00;;
54384;SDS011;40284;52.878;5.998;2023-07-16T02:07:16;14.43;;;3.65;;
54384;SDS011;40284;52.878;5.998;2023-07-16T02:09:42;12.95;;;3.70;;
54384;SDS011;40284;52.878;5.998;2023-07-16T02:12:08;10.57;;;3.60;;
54384;SDS011;40284;52.878;5.998;2023-07-16T02:14:34;10.18;;;4.13;;
54384;SDS011;40284;52.878;5.998;2023-07-16T02:17:00;7.68;;;3.28;;
54384;SDS011;40284;52.878;5.998;2023-07-16T02:19:27;13.75;;;3.90;;
54384;SDS011;40284;52.878;5.998;2023-07-16T02:21:53;10.63;;;3.88;;
54384;SDS011;40284;52.878;5.998;2023-07-16T02:24:19;7.85;;;3.35;;
54384;SDS011;40284;52.878;5.998;2023-07-16T02:26:45;15.90;;;4.30;;
54384;SDS011;40284;52.878;5.998;2023-07-16T02:29:11;15.48;;;4.22;;
54384;SDS011;40284;52.878;5.998;2023-07-16T02:31:37;9.07;;;4.00;;
54384;SDS011;40284;52.878;5.998;2023-07-16T02:34:04;12.45;;;3.90;;
54384;SDS011;40284;52.878;5.998;2023-07-16T02:36:30;10.25;;;4.70;;
54384;SDS011;40284;52.878;5.998;2023-07-16T02:38:56;8.50;;;4.25;;
54384;SDS011;40284;52.878;5.998;2023-07-16T02:41:22;10.80;;;3.90;;
54384;SDS011;40284;52.878;5.998;2023-07-16T02:43:48;7.72;;;3.75;;
54384;SDS011;40284;52.878;5.998;2023-07-16T02:46:24;10.23;;;4.68;;
54384;SDS011;40284;52.878;5.998;2023-07-16T02:48:50;9.70;;;4.00;;
54384;SDS011;40284;52.878;5.998;2023-07-16T02:51:16;10.70;;;4.07;;
54384;SDS011;40284;52.878;5.998;2023-07-16T02:53:42;10.45;;;4.35;;
54384;SDS011;40284;52.878;5.998;2023-07-16T02:56:08;11.15;;;4.28;;
54384;SDS011;40284;52.878;5.998;2023-07-16T02:58:34;9.07;;;4.65;;
54384;SDS011;40284;52.878;5.998;2023-07-16T03:01:00;9.90;;;4.57;;
54384;SDS011;40284;52.878;5.998;2023-07-16T03:03:26;12.00;;;5.20;;
54384;SDS011;40284;52.878;5.998;2023-07-16T03:05:52;10.82;;;4.50;;
54384;SDS011;40284;52.878;5.998;2023-07-16T03:08:18;11.88;;;4.15;;
54384;SDS011;40284;52.878;5.998;2023-07-16T03:10:45;9.75;;;4.80;;
54384;SDS011;40284;52.878;5.998;2023-07-16T03:13:11;15.25;;;4.50;;
54384;SDS011;40284;52.878;5.998;2023-07-16T03:15:37;16.83;;;5.25;;
54384;SDS011;40284;52.878;5.998;2023-07-16T03:18:03;16.73;;;5.22;;
54384;SDS011;40284;52.878;5.998;2023-07-16T03:20:29;9.27;;;5.00;;
54384;SDS011;40284;52.878;5.998;2023-07-16T03:22:55;13.52;;;5.00;;
54384;SDS011;40284;52.878;5.998;2023-07-16T03:25:21;14.82;;;4.78;;
54384;SDS011;40284;52.878;5.998;2023-07-16T03:27:48;10.95;;;4.50;;
54384;SDS011;40284;52.878;5.998;2023-07-16T03:30:14;17.95;;;5.25;;
54384;SDS011;40284;52.878;5.998;2023-07-16T03:32:40;16.50;;;5.28;;
54384;SDS011;40284;52.878;5.998;2023-07-16T03:35:06;12.57;;;5.15;;
54384;SDS011;40284;52.878;5.998;2023-07-16T03:37:32;12.57;;;5.47;;
54384;SDS011;40284;52.878;5.998;2023-07-16T03:40:11;15.23;;;5.68;;
54384;SDS011;40284;52.878;5.998;2023-07-16T03:42:37;14.88;;;5.55;;
54384;SDS011;40284;52.878;5.998;2023-07-16T03:45:04;10.60;;;5.13;;
54384;SDS011;40284;52.878;5.998;2023-07-16T03:47:30;11.15;;;5.40;;
54384;SDS011;40284;52.878;5.998;2023-07-16T03:49:56;15.13;;;5.88;;
54384;SDS011;40284;52.878;5.998;2023-07-16T03:52:22;10.45;;;5.32;;
54384;SDS011;40284;52.878;5.998;2023-07-16T03:54:49;11.57;;;5.00;;
54384;SDS011;40284;52.878;5.998;2023-07-16T03:57:16;10.00;;;5.70;;
54384;SDS011;40284;52.878;5.998;2023-07-16T03:59:42;16.23;;;6.03;;
54384;SDS011;40284;52.878;5.998;2023-07-16T04:02:08;12.75;;;6.28;;
54384;SDS011;40284;52.878;5.998;2023-07-16T04:04:34;16.90;;;7.20;;
54384;SDS011;40284;52.878;5.998;2023-07-16T04:07:00;11.13;;;5.43;;
54384;SDS011;40284;52.878;5.998;2023-07-16T04:09:26;11.30;;;5.25;;
54384;SDS011;40284;52.878;5.998;2023-07-16T04:11:52;12.88;;;5.40;;
54384;SDS011;40284;52.878;5.998;2023-07-16T04:14:19;14.32;;;7.22;;
54384;SDS011;40284;52.878;5.998;2023-07-16T04:16:45;16.13;;;5.57;;
54384;SDS011;40284;52.878;5.998;2023-07-16T04:19:11;10.75;;;5.70;;
54384;SDS011;40284;52.878;5.998;2023-07-16T04:21:37;16.33;;;5.78;;
54384;SDS011;40284;52.878;5.998;2023-07-16T04:24:04;11.73;;;5.95;;
54384;SDS011;40284;52.878;5.998;2023-07-16T04:26:30;14.23;;;5.70;;
54384;SDS011;40284;52.878;5.998;2023-07-16T04:28:56;12.93;;;5.60;;
54384;SDS011;40284;52.878;5.998;2023-07-16T04:31:23;12.52;;;6.07;;
54384;SDS011;40284;52.878;5.998;2023-07-16T04:33:49;12.95;;;5.38;;
54384;SDS011;40284;52.878;5.998;2023-07-16T04:36:15;14.50;;;5.50;;
54384;SDS011;40284;52.878;5.998;2023-07-16T04:38:41;15.82;;;6.18;;
54384;SDS011;40284;52.878;5.998;2023-07-16T04:41:07;20.85;;;5.80;;
54384;SDS011;40284;52.878;5.998;2023-07-16T04:43:33;20.05;;;8.00;;
54384;SDS011;40284;52.878;5.998;2023-07-16T04:45:59;14.52;;;5.78;;
54384;SDS011;40284;52.878;5.998;2023-07-16T04:48:26;14.95;;;5.43;;
54384;SDS011;40284;52.878;5.998;2023-07-16T04:50:52;12.10;;;5.32;;
54384;SDS011;40284;52.878;5.998;2023-07-16T04:53:18;12.27;;;5.22;;
54384;SDS011;40284;52.878;5.998;2023-07-16T04:55:44;12.02;;;5.45;;
54384;SDS011;40284;52.878;5.998;2023-07-16T04:58:13;11.82;;;5.28;;
54384;SDS011;40284;52.878;5.998;2023-07-16T05:00:40;10.25;;;5.05;;
54384;SDS011;40284;52.878;5.998;2023-07-16T05:03:06;15.07;;;5.57;;
54384;SDS011;40284;52.878;5.998;2023-07-16T05:05:32;15.02;;;5.15;;
54384;SDS011;40284;52.878;5.998;2023-07-16T05:07:59;10.20;;;4.80;;
54384;SDS011;40284;52.878;5.998;2023-07-16T05:10:26;11.73;;;5.43;;
54384;SDS011;40284;52.878;5.998;2023-07-16T05:12:55;11.88;;;5.28;;
54384;SDS011;40284;52.878;5.998;2023-07-16T05:15:21;11.73;;;4.90;;
54384;SDS011;40284;52.878;5.998;2023-07-16T05:17:47;12.50;;;4.35;;
54384;SDS011;40284;52.878;5.998;2023-07-16T05:20:14;11.15;;;5.05;;
54384;SDS011;40284;52.878;5.998;2023-07-16T05:22:40;11.13;;;4.85;;
54384;SDS011;40284;52.878;5.998;2023-07-16T05:25:06;12.57;;;4.30;;
54384;SDS011;40284;52.878;5.998;2023-07-16T05:27:32;10.60;;;4.72;;
54384;SDS011;40284;52.878;5.998;2023-07-16T05:29:58;10.27;;;4.18;;
54384;SDS011;40284;52.878;5.998;2023-07-16T05:32:24;11.43;;;4.50;;
54384;SDS011;40284;52.878;5.998;2023-07-16T05:34:50;10.95;;;4.57;;
54384;SDS011;40284;52.878;5.998;2023-07-16T05:37:16;10.52;;;4.40;;
54384;SDS011;40284;52.878;5.998;2023-07-16T05:39:42;14.10;;;4.40;;
54384;SDS011;40284;52.878;5.998;2023-07-16T05:42:08;13.00;;;5.07;;
54384;SDS011;40284;52.878;5.998;2023-07-16T05:44:35;12.65;;;4.45;;
54384;SDS011;40284;52.878;5.998;2023-07-16T05:47:01;11.60;;;4.45;;
54384;SDS011;40284;52.878;5.998;2023-07-16T05:49:27;12.45;;;5.25;;
54384;SDS011;40284;52.878;5.998;2023-07-16T05:51:53;9.90;;;4.90;;
54384;SDS011;40284;52.878;5.998;2023-07-16T05:54:21;13.98;;;5.03;;
54384;SDS011;40284;52.878;5.998;2023-07-16T05:56:47;16.73;;;4.93;;
54384;SDS011;40284;52.878;5.998;2023-07-16T05:59:13;12.98;;;5.90;;
54384;SDS011;40284;52.878;5.998;2023-07-16T06:01:39;13.73;;;6.13;;
54384;SDS011;40284;52.878;5.998;2023-07-16T06:04:05;12.60;;;5.35;;
54384;SDS011;40284;52.878;5.998;2023-07-16T06:06:31;12.25;;;5.57;;
54384;SDS011;40284;52.878;5.998;2023-07-16T06:08:57;15.05;;;5.70;;
54384;SDS011;40284;52.878;5.998;2023-07-16T06:11:24;11.82;;;5.13;;
54384;SDS011;40284;52.878;5.998;2023-07-16T06:13:52;14.10;;;5.72;;
54384;SDS011;40284;52.878;5.998;2023-07-16T06:16:18;11.15;;;5.18;;
54384;SDS011;40284;52.878;5.998;2023-07-16T06:18:44;12.07;;;5.43;;
54384;SDS011;40284;52.878;5.998;2023-07-16T06:21:10;12.45;;;5.25;;
54384;SDS011;40284;52.878;5.998;2023-07-16T06:23:36;11.43;;;5.53;;
54384;SDS011;40284;52.878;5.998;2023-07-16T06:26:02;12.52;;;5.53;;
54384;SDS011;40284;52.878;5.998;2023-07-16T06:28:28;14.57;;;6.13;;
54384;SDS011;40284;52.878;5.998;2023-07-16T06:30:54;10.18;;;5.25;;
54384;SDS011;40284;52.878;5.998;2023-07-16T06:33:20;10.93;;;4.90;;
54384;SDS011;40284;52.878;5.998;2023-07-16T06:35:47;10.15;;;6.13;;
54384;SDS011;40284;52.878;5.998;2023-07-16T06:38:13;10.85;;;5.70;;
54384;SDS011;40284;52.878;5.998;2023-07-16T06:40:40;12.35;;;6.32;;
54384;SDS011;40284;52.878;5.998;2023-07-16T06:43:06;10.45;;;5.70;;
54384;SDS011;40284;52.878;5.998;2023-07-16T06:45:32;10.82;;;5.53;;
54384;SDS011;40284;52.878;5.998;2023-07-16T06:47:58;14.13;;;6.50;;
54384;SDS011;40284;52.878;5.998;2023-07-16T06:50:24;11.45;;;5.38;;
54384;SDS011;40284;52.878;5.998;2023-07-16T06:52:50;12.32;;;5.57;;
54384;SDS011;40284;52.878;5.998;2023-07-16T06:55:16;14.35;;;5.95;;
54384;SDS011;40284;52.878;5.998;2023-07-16T06:57:42;13.88;;;5.70;;
54384;SDS011;40284;52.878;5.998;2023-07-16T07:00:09;14.57;;;5.65;;
54384;SDS011;40284;52.878;5.998;2023-07-16T07:02:38;10.07;;;5.68;;
54384;SDS011;40284;52.878;5.998;2023-07-16T07:05:04;10.65;;;5.40;;
54384;SDS011;40284;52.878;5.998;2023-07-16T07:07:30;15.18;;;5.60;;
54384;SDS011;40284;52.878;5.998;2023-07-16T07:09:56;11.48;;;5.05;;
54384;SDS011;40284;52.878;5.998;2023-07-16T07:12:22;14.73;;;5.68;;
54384;SDS011;40284;52.878;5.998;2023-07-16T07:14:48;11.35;;;5.18;;
54384;SDS011;40284;52.878;5.998;2023-07-16T07:17:14;14.52;;;5.40;;
54384;SDS011;40284;52.878;5.998;2023-07-16T07:19:41;11.05;;;4.78;;
54384;SDS011;40284;52.878;5.998;2023-07-16T07:22:07;7.78;;;4.80;;
54384;SDS011;40284;52.878;5.998;2023-07-16T07:24:34;13.35;;;5.60;;
54384;SDS011;40284;52.878;5.998;2023-07-16T07:27:00;12.00;;;5.03;;
54384;SDS011;40284;52.878;5.998;2023-07-16T07:29:26;13.13;;;5.50;;
54384;SDS011;40284;52.878;5.998;2023-07-16T07:31:52;10.75;;;4.70;;
54384;SDS011;40284;52.878;5.998;2023-07-16T07:34:18;8.73;;;5.13;;
54384;SDS011;40284;52.878;5.998;2023-07-16T07:36:44;10.73;;;5.15;;
54384;SDS011;40284;52.878;5.998;2023-07-16T07:39:10;13.20;;;5.55;;
54384;SDS011;40284;52.878;5.998;2023-07-16T07:41:38;11.38;;;4.90;;
54384;SDS011;40284;52.878;5.998;2023-07-16T07:44:04;13.18;;;5.95;;
54384;SDS011;40284;52.878;5.998;2023-07-16T07:46:30;12.27;;;4.50;;
54384;SDS011;40284;52.878;5.998;2023-07-16T07:48:56;13.55;;;5.45;;
54384;SDS011;40284;52.878;5.998;2023-07-16T07:51:22;11.45;;;5.38;;
54384;SDS011;40284;52.878;5.998;2023-07-16T07:53:49;10.20;;;5.43;;
54384;SDS011;40284;52.878;5.998;2023-07-16T07:56:15;10.88;;;4.88;;
54384;SDS011;40284;52.878;5.998;2023-07-16T07:58:41;11.88;;;5.20;;
54384;SDS011;40284;52.878;5.998;2023-07-16T08:01:07;11.63;;;5.13;;
54384;SDS011;40284;52.878;5.998;2023-07-16T08:03:33;12.05;;;5.82;;
54384;SDS011;40284;52.878;5.998;2023-07-16T08:06:00;10.40;;;5.30;;
54384;SDS011;40284;52.878;5.998;2023-07-16T08:08:26;11.65;;;5.32;;
54384;SDS011;40284;52.878;5.998;2023-07-16T08:10:52;10.70;;;5.55;;
54384;SDS011;40284;52.878;5.998;2023-07-16T08:13:18;15.40;;;5.90;;
54384;SDS011;40284;52.878;5.998;2023-07-16T08:15:45;10.98;;;5.68;;
54384;SDS011;40284;52.878;5.998;2023-07-16T08:18:12;9.02;;;5.03;;
54384;SDS011;40284;52.878;5.998;2023-07-16T08:20:38;15.43;;;6.18;;
54384;SDS011;40284;52.878;5.998;2023-07-16T08:23:06;9.63;;;4.90;;
54384;SDS011;40284;52.878;5.998;2023-07-16T08:25:32;12.27;;;5.25;;
54384;SDS011;40284;52.878;5.998;2023-07-16T08:27:58;11.90;;;5.28;;
54384;SDS011;40284;52.878;5.998;2023-07-16T08:30:24;16.05;;;5.35;;
54384;SDS011;40284;52.878;5.998;2023-07-16T08:32:50;8.45;;;4.47;;
54384;SDS011;40284;52.878;5.998;2023-07-16T08:35:16;8.68;;;5.10;;
54384;SDS011;40284;52.878;5.998;2023-07-16T08:37:45;13.05;;;5.35;;
54384;SDS011;40284;52.878;5.998;2023-07-16T08:40:11;10.95;;;4.97;;
54384;SDS011;40284;52.878;5.998;2023-07-16T08:42:38;10.75;;;5.10;;
54384;SDS011;40284;52.878;5.998;2023-07-16T08:45:09;11.25;;;5.38;;
54384;SDS011;40284;52.878;5.998;2023-07-16T08:47:36;13.73;;;5.35;;
54384;SDS011;40284;52.878;5.998;2023-07-16T08:50:02;11.70;;;5.75;;
54384;SDS011;40284;52.878;5.998;2023-07-16T08:52:28;10.88;;;5.22;;
54384;SDS011;40284;52.878;5.998;2023-07-16T08:54:55;13.00;;;4.72;;
54384;SDS011;40284;52.878;5.998;2023-07-16T08:57:21;12.05;;;5.97;;
54384;SDS011;40284;52.878;5.998;2023-07-16T08:59:48;8.98;;;4.72;;
54384;SDS011;40284;52.878;5.998;2023-07-16T09:02:15;14.75;;;5.43;;
54384;SDS011;40284;52.878;5.998;2023-07-16T09:04:41;14.02;;;5.25;;
54384;SDS011;40284;52.878;5.998;2023-07-16T09:07:07;12.02;;;5.30;;
54384;SDS011;40284;52.878;5.998;2023-07-16T09:09:33;11.15;;;5.10;;
54384;SDS011;40284;52.878;5.998;2023-07-16T09:12:00;12.07;;;4.82;;
54384;SDS011;40284;52.878;5.998;2023-07-16T09:14:27;14.45;;;5.75;;
54384;SDS011;40284;52.878;5.998;2023-07-16T09:16:53;11.10;;;4.65;;
54384;SDS011;40284;52.878;5.998;2023-07-16T09:19:19;13.32;;;5.03;;
54384;SDS011;40284;52.878;5.998;2023-07-16T09:21:46;13.85;;;5.13;;
54384;SDS011;40284;52.878;5.998;2023-07-16T09:24:12;13.60;;;4.97;;
54384;SDS011;40284;52.878;5.998;2023-07-16T09:26:38;8.77;;;4.82;;
54384;SDS011;40284;52.878;5.998;2023-07-16T09:29:05;14.95;;;5.13;;
54384;SDS011;40284;52.878;5.998;2023-07-16T09:31:32;10.93;;;5.45;;
54384;SDS011;40284;52.878;5.998;2023-07-16T09:33:58;12.88;;;5.65;;
54384;SDS011;40284;52.878;5.998;2023-07-16T09:36:25;9.20;;;5.10;;
54384;SDS011;40284;52.878;5.998;2023-07-16T09:38:52;10.57;;;5.32;;
54384;SDS011;40284;52.878;5.998;2023-07-16T09:41:20;8.80;;;5.20;;
54384;SDS011;40284;52.878;5.998;2023-07-16T09:43:46;7.43;;;5.20;;
54384;SDS011;40284;52.878;5.998;2023-07-16T09:46:13;10.43;;;4.90;;
54384;SDS011;40284;52.878;5.998;2023-07-16T09:48:39;8.82;;;5.00;;
54384;SDS011;40284;52.878;5.998;2023-07-16T09:51:05;15.40;;;5.88;;
54384;SDS011;40284;52.878;5.998;2023-07-16T09:53:32;10.60;;;4.95;;
54384;SDS011;40284;52.878;5.998;2023-07-16T09:55:58;10.48;;;5.50;;
54384;SDS011;40284;52.878;5.998;2023-07-16T09:58:25;11.68;;;6.07;;
54384;SDS011;40284;52.878;5.998;2023-07-16T10:00:52;13.57;;;4.68;;
54384;SDS011;40284;52.878;5.998;2023-07-16T10:03:18;12.63;;;5.78;;
54384;SDS011;40284;52.878;5.998;2023-07-16T10:05:44;11.00;;;5.03;;
54384;SDS011;40284;52.878;5.998;2023-07-16T10:08:19;12.10;;;5.70;;
54384;SDS011;40284;52.878;5.998;2023-07-16T10:10:47;10.40;;;5.07;;
54384;SDS011;40284;52.878;5.998;2023-07-16T10:13:13;13.43;;;5.70;;
54384;SDS011;40284;52.878;5.998;2023-07-16T10:16:01;17.80;;;6.13;;
54384;SDS011;40284;52.878;5.998;2023-07-16T10:18:27;13.32;;;5.95;;
54384;SDS011;40284;52.878;5.998;2023-07-16T10:20:59;6.28;;;4.90;;
54384;SDS011;40284;52.878;5.998;2023-07-16T10:23:25;12.52;;;5.97;;
54384;SDS011;40284;52.878;5.998;2023-07-16T10:26:02;9.77;;;5.00;;
54384;SDS011;40284;52.878;5.998;2023-07-16T10:28:34;9.02;;;5.20;;
54384;SDS011;40284;52.878;5.998;2023-07-16T10:31:00;9.80;;;4.57;;
54384;SDS011;40284;52.878;5.998;2023-07-16T10:33:27;11.82;;;4.50;;
54384;SDS011;40284;52.878;5.998;2023-07-16T10:35:53;11.57;;;4.57;;
54384;SDS011;40284;52.878;5.998;2023-07-16T10:38:19;9.63;;;5.20;;
54384;SDS011;40284;52.878;5.998;2023-07-16T10:40:45;11.35;;;5.07;;
54384;SDS011;40284;52.878;5.998;2023-07-16T10:43:14;11.18;;;4.75;;
54384;SDS011;40284;52.878;5.998;2023-07-16T10:45:40;11.93;;;5.03;;
54384;SDS011;40284;52.878;5.998;2023-07-16T10:48:06;9.48;;;4.65;;
54384;SDS011;40284;52.878;5.998;2023-07-16T10:50:33;9.70;;;5.05;;
54384;SDS011;40284;52.878;5.998;2023-07-16T10:53:00;13.38;;;5.28;;
54384;SDS011;40284;52.878;5.998;2023-07-16T10:55:26;9.57;;;5.25;;
54384;SDS011;40284;52.878;5.998;2023-07-16T10:57:53;8.65;;;4.95;;
54384;SDS011;40284;52.878;5.998;2023-07-16T11:00:19;13.48;;;5.55;;
54384;SDS011;40284;52.878;5.998;2023-07-16T11:02:46;12.45;;;4.80;;
54384;SDS011;40284;52.878;5.998;2023-07-16T11:05:13;12.63;;;4.97;;
54384;SDS011;40284;52.878;5.998;2023-07-16T11:07:43;9.38;;;5.30;;
54384;SDS011;40284;52.878;5.998;2023-07-16T11:10:10;10.05;;;4.55;;
54384;SDS011;40284;52.878;5.998;2023-07-16T11:12:36;9.35;;;5.32;;
54384;SDS011;40284;52.878;5.998;2023-07-16T11:15:02;11.25;;;5.57;;
54384;SDS011;40284;52.878;5.998;2023-07-16T11:17:28;10.02;;;5.45;;
54384;SDS011;40284;52.878;5.998;2023-07-16T11:19:54;10.10;;;5.00;;
54384;SDS011;40284;52.878;5.998;2023-07-16T11:22:24;10.32;;;4.57;;
54384;SDS011;40284;52.878;5.998;2023-07-16T11:24:52;12.00;;;5.70;;
54384;SDS011;40284;52.878;5.998;2023-07-16T11:27:22;14.38;;;5.93;;
54384;SDS011;40284;52.878;5.998;2023-07-16T11:29:49;10.95;;;5.13;;
54384;SDS011;40284;52.878;5.998;2023-07-16T11:32:31;11.95;;;6.20;;
54384;SDS011;40284;52.878;5.998;2023-07-16T11:34:59;7.40;;;4.80;;
54384;SDS011;40284;52.878;5.998;2023-07-16T11:37:30;15.10;;;5.85;;
54384;SDS011;40284;52.878;5.998;2023-07-16T11:39:57;11.35;;;4.95;;
54384;SDS011;40284;52.878;5.998;2023-07-16T11:42:33;11.02;;;5.32;;
54384;SDS011;40284;52.878;5.998;2023-07-16T11:45:00;10.00;;;5.40;;
54384;SDS011;40284;52.878;5.998;2023-07-16T11:47:26;13.50;;;6.50;;
54384;SDS011;40284;52.878;5.998;2023-07-16T11:49:53;9.70;;;5.38;;
54384;SDS011;40284;52.878;5.998;2023-07-16T11:52:20;9.98;;;5.15;;
54384;SDS011;40284;52.878;5.998;2023-07-16T11:54:47;11.40;;;6.22;;
54384;SDS011;40284;52.878;5.998;2023-07-16T11:57:15;13.48;;;6.95;;
54384;SDS011;40284;52.878;5.998;2023-07-16T11:59:41;11.30;;;5.15;;
54384;SDS011;40284;52.878;5.998;2023-07-16T12:02:07;10.73;;;5.38;;
54384;SDS011;40284;52.878;5.998;2023-07-16T12:04:33;13.68;;;5.70;;
54384;SDS011;40284;52.878;5.998;2023-07-16T12:07:00;8.43;;;5.15;;
54384;SDS011;40284;52.878;5.998;2023-07-16T12:09:26;12.73;;;5.22;;
54384;SDS011;40284;52.878;5.998;2023-07-16T12:11:52;10.70;;;5.18;;
54384;SDS011;40284;52.878;5.998;2023-07-16T12:14:18;9.68;;;5.25;;
54384;SDS011;40284;52.878;5.998;2023-07-16T12:16:44;8.68;;;4.85;;
54384;SDS011;40284;52.878;5.998;2023-07-16T12:19:10;11.90;;;5.38;;
54384;SDS011;40284;52.878;5.998;2023-07-16T12:21:36;12.88;;;5.38;;
54384;SDS011;40284;52.878;5.998;2023-07-16T12:24:02;12.98;;;5.85;;
54384;SDS011;40284;52.878;5.998;2023-07-16T12:26:29;12.20;;;5.00;;
54384;SDS011;40284;52.878;5.998;2023-07-16T12:28:55;10.80;;;5.20;;
54384;SDS011;40284;52.878;5.998;2023-07-16T12:31:21;9.70;;;4.78;;
54384;SDS011;40284;52.878;5.998;2023-07-16T12:33:47;10.50;;;5.00;;
54384;SDS011;40284;52.878;5.998;2023-07-16T12:36:14;9.35;;;4.50;;
54384;SDS011;40284;52.878;5.998;2023-07-16T12:38:40;10.63;;;4.93;;
54384;SDS011;40284;52.878;5.998;2023-07-16T12:41:06;12.77;;;5.18;;
54384;SDS011;40284;52.878;5.998;2023-07-16T12:43:33;10.35;;;5.03;;
54384;SDS011;40284;52.878;5.998;2023-07-16T12:46:02;9.80;;;4.28;;
54384;SDS011;40284;52.878;5.998;2023-07-16T12:48:29;8.70;;;4.45;;
54384;SDS011;40284;52.878;5.998;2023-07-16T12:50:55;7.95;;;3.28;;
54384;SDS011;40284;52.878;5.998;2023-07-16T12:53:21;9.07;;;3.65;;
54384;SDS011;40284;52.878;5.998;2023-07-16T12:55:48;10.30;;;3.55;;
54384;SDS011;40284;52.878;5.998;2023-07-16T12:58:14;9.18;;;3.25;;
54384;SDS011;40284;52.878;5.998;2023-07-16T13:00:40;12.25;;;3.38;;
54384;SDS011;40284;52.878;5.998;2023-07-16T13:03:06;9.25;;;3.03;;
54384;SDS011;40284;52.878;5.998;2023-07-16T13:05:36;13.82;;;2.50;;
54384;SDS011;40284;52.878;5.998;2023-07-16T13:08:03;9.38;;;2.78;;
54384;SDS011;40284;52.878;5.998;2023-07-16T13:10:29;7.50;;;2.78;;
54384;SDS011;40284;52.878;5.998;2023-07-16T13:12:55;8.65;;;2.60;;
54384;SDS011;40284;52.878;5.998;2023-07-16T13:15:21;10.63;;;2.53;;
54384;SDS011;40284;52.878;5.998;2023-07-16T13:17:47;7.32;;;2.55;;
54384;SDS011;40284;52.878;5.998;2023-07-16T13:20:13;8.38;;;2.20;;
54384;SDS011;40284;52.878;5.998;2023-07-16T13:22:39;5.72;;;1.90;;
54384;SDS011;40284;52.878;5.998;2023-07-16T13:25:06;12.27;;;4.38;;
54384;SDS011;40284;52.878;5.998;2023-07-16T13:27:32;15.57;;;3.88;;
54384;SDS011;40284;52.878;5.998;2023-07-16T13:29:58;11.48;;;3.38;;
54384;SDS011;40284;52.878;5.998;2023-07-16T13:32:24;12.43;;;3.05;;
54384;SDS011;40284;52.878;5.998;2023-07-16T13:34:50;11.38;;;3.08;;
54384;SDS011;40284;52.878;5.998;2023-07-16T13:37:16;14.77;;;3.00;;
54384;SDS011;40284;52.878;5.998;2023-07-16T13:39:42;18.02;;;3.67;;
54384;SDS011;40284;52.878;5.998;2023-07-16T13:42:08;11.18;;;2.63;;
54384;SDS011;40284;52.878;5.998;2023-07-16T13:44:36;13.48;;;2.83;;
54384;SDS011;40284;52.878;5.998;2023-07-16T13:47:02;12.20;;;2.88;;
54384;SDS011;40284;52.878;5.998;2023-07-16T13:49:29;8.13;;;2.13;;
54384;SDS011;40284;52.878;5.998;2023-07-16T13:51:55;10.40;;;2.78;;
54384;SDS011;40284;52.878;5.998;2023-07-16T13:54:21;12.15;;;2.70;;
54384;SDS011;40284;52.878;5.998;2023-07-16T13:56:50;13.02;;;3.17;;
54384;SDS011;40284;52.878;5.998;2023-07-16T13:59:17;9.57;;;2.22;;
54384;SDS011;40284;52.878;5.998;2023-07-16T14:01:43;10.40;;;2.53;;
54384;SDS011;40284;52.878;5.998;2023-07-16T14:04:09;10.70;;;2.53;;
54384;SDS011;40284;52.878;5.998;2023-07-16T14:06:36;10.20;;;2.53;;
54384;SDS011;40284;52.878;5.998;2023-07-16T14:09:02;9.15;;;1.98;;
54384;SDS011;40284;52.878;5.998;2023-07-16T14:11:29;11.65;;;2.28;;
54384;SDS011;40284;52.878;5.998;2023-07-16T14:13:56;11.45;;;2.35;;
54384;SDS011;40284;52.878;5.998;2023-07-16T14:16:22;13.65;;;2.33;;
54384;SDS011;40284;52.878;5.998;2023-07-16T14:18:50;9.32;;;2.05;;
54384;SDS011;40284;52.878;5.998;2023-07-16T14:21:17;4.50;;;1.80;;
54384;SDS011;40284;52.878;5.998;2023-07-16T14:23:43;9.73;;;2.33;;
54384;SDS011;40284;52.878;5.998;2023-07-16T14:26:09;9.82;;;2.13;;
54384;SDS011;40284;52.878;5.998;2023-07-16T14:28:35;13.48;;;2.13;;
54384;SDS011;40284;52.878;5.998;2023-07-16T14:31:02;8.93;;;2.03;;
54384;SDS011;40284;52.878;5.998;2023-07-16T14:33:28;9.68;;;2.15;;
54384;SDS011;40284;52.878;5.998;2023-07-16T14:35:54;7.88;;;1.88;;
54384;SDS011;40284;52.878;5.998;2023-07-16T14:38:20;9.60;;;2.58;;